createdAt,value
2016-11-15T00:00:30.154Z,0
2016-11-15T00:01:30.074Z,0
2016-11-15T00:02:30.111Z,0
2016-11-15T00:03:31.118Z,0
2016-11-15T00:04:30.080Z,0
2016-11-15T00:05:30.184Z,0
2016-11-15T00:06:30.266Z,0
2016-11-15T00:07:30.129Z,0
2016-11-15T00:08:30.790Z,0
2016-11-15T00:09:30.113Z,0
2016-11-15T00:10:30.164Z,0
2016-11-15T00:11:30.291Z,0
2016-11-15T00:12:30.255Z,0
2016-11-15T00:13:30.092Z,0
2016-11-15T00:14:30.131Z,0
2016-11-15T00:15:30.093Z,0
2016-11-15T00:16:30.987Z,0
2016-11-15T00:17:30.290Z,0
2016-11-15T00:18:30.301Z,0
2016-11-15T00:19:30.104Z,0
2016-11-15T00:20:30.550Z,0
2016-11-15T00:21:30.141Z,0
2016-11-15T00:22:30.071Z,0
2016-11-15T00:23:30.041Z,0
2016-11-15T00:24:30.059Z,0
2016-11-15T00:25:30.056Z,0
2016-11-15T00:26:30.060Z,0
2016-11-15T00:27:30.083Z,0
2016-11-15T00:28:30.243Z,0
2016-11-15T00:29:30.102Z,0
2016-11-15T00:30:30.504Z,0
2016-11-15T00:31:30.051Z,0
2016-11-15T00:32:30.063Z,0
2016-11-15T00:33:30.060Z,0
2016-11-15T00:34:30.072Z,0
2016-11-15T00:35:30.259Z,0
2016-11-15T00:36:30.079Z,0
2016-11-15T00:37:30.085Z,0
2016-11-15T00:38:30.381Z,0
2016-11-15T00:39:30.092Z,0
2016-11-15T00:40:30.822Z,0
2016-11-15T00:41:30.036Z,0
2016-11-15T00:42:30.364Z,0
2016-11-15T00:43:30.124Z,0
2016-11-15T00:44:30.378Z,0
2016-11-15T00:45:30.066Z,0
2016-11-15T00:46:30.247Z,0
2016-11-15T00:47:30.074Z,0
2016-11-15T00:48:30.250Z,0
2016-11-15T00:49:30.364Z,0
2016-11-15T00:50:30.257Z,0
2016-11-15T00:51:30.281Z,0
2016-11-15T00:52:30.147Z,0
2016-11-15T00:53:30.090Z,0
2016-11-15T00:54:30.166Z,0
2016-11-15T00:55:30.268Z,0
2016-11-15T00:56:30.179Z,0
2016-11-15T00:57:30.156Z,0
2016-11-15T00:58:30.304Z,0
2016-11-15T00:59:30.199Z,0
2016-11-15T01:00:30.360Z,0
2016-11-15T01:01:30.296Z,0
2016-11-15T01:02:30.100Z,0
2016-11-15T01:03:30.089Z,0
2016-11-15T01:04:30.109Z,0
2016-11-15T01:05:30.087Z,0
2016-11-15T01:06:30.214Z,0
2016-11-15T01:07:30.135Z,0
2016-11-15T01:08:30.160Z,0
2016-11-15T01:09:30.126Z,0
2016-11-15T01:10:31.547Z,0
2016-11-15T01:11:30.120Z,0
2016-11-15T01:12:30.087Z,0
2016-11-15T01:13:30.111Z,0
2016-11-15T01:14:30.365Z,0
2016-11-15T01:15:30.283Z,0
2016-11-15T01:16:30.122Z,0
2016-11-15T01:17:30.125Z,0
2016-11-15T01:18:30.250Z,0
2016-11-15T01:19:30.311Z,0
2016-11-15T01:20:30.302Z,0
2016-11-15T01:21:30.141Z,0
2016-11-15T01:22:30.272Z,0
2016-11-15T01:23:30.108Z,0
2016-11-15T01:24:30.177Z,0
2016-11-15T01:25:30.205Z,0
2016-11-15T01:26:30.148Z,0
2016-11-15T01:27:30.717Z,0
2016-11-15T01:28:30.154Z,0
2016-11-15T01:29:30.205Z,0
2016-11-15T01:30:30.157Z,0
2016-11-15T01:31:30.302Z,0
2016-11-15T01:32:30.122Z,0
2016-11-15T01:33:30.234Z,0
2016-11-15T01:34:30.353Z,0
2016-11-15T01:35:30.515Z,0
2016-11-15T01:36:30.083Z,0
2016-11-15T01:37:30.173Z,0
2016-11-15T01:38:30.173Z,0
2016-11-15T01:39:30.208Z,0
2016-11-15T01:40:30.207Z,0
2016-11-15T01:41:30.206Z,0
2016-11-15T01:42:30.183Z,0
2016-11-15T01:43:30.158Z,0
2016-11-15T01:44:30.199Z,0
2016-11-15T01:45:30.189Z,0
2016-11-15T01:46:30.602Z,0
2016-11-15T01:47:30.167Z,0
2016-11-15T01:48:30.177Z,0
2016-11-15T01:49:30.150Z,0
2016-11-15T01:50:30.237Z,0
2016-11-15T01:51:30.520Z,0
2016-11-15T01:52:30.238Z,0
2016-11-15T01:53:30.094Z,0
2016-11-15T01:54:30.101Z,0
2016-11-15T01:55:30.648Z,0
2016-11-15T01:56:30.294Z,0
2016-11-15T01:57:30.137Z,0
2016-11-15T01:58:30.307Z,0
2016-11-15T01:59:30.766Z,0
2016-11-15T02:00:30.142Z,0
2016-11-15T02:01:30.120Z,0
2016-11-15T02:02:30.172Z,0
2016-11-15T02:03:30.498Z,0
2016-11-15T02:04:30.176Z,0
2016-11-15T02:05:30.135Z,0
2016-11-15T02:06:30.125Z,0
2016-11-15T02:07:30.143Z,0
2016-11-15T02:08:30.392Z,0
2016-11-15T02:09:30.142Z,0
2016-11-15T02:10:30.183Z,0
2016-11-15T02:11:30.152Z,0
2016-11-15T02:12:30.116Z,0
2016-11-15T02:13:30.114Z,0
2016-11-15T02:14:30.175Z,0
2016-11-15T02:15:30.164Z,0
2016-11-15T02:16:30.161Z,0
2016-11-15T02:17:30.240Z,0
2016-11-15T02:18:30.142Z,0
2016-11-15T02:19:30.112Z,0
2016-11-15T02:20:30.434Z,0
2016-11-15T02:21:30.176Z,0
2016-11-15T02:22:30.208Z,0
2016-11-15T02:23:30.179Z,0
2016-11-15T02:24:30.183Z,0
2016-11-15T02:25:30.346Z,0
2016-11-15T02:26:30.199Z,0
2016-11-15T02:27:30.191Z,0
2016-11-15T02:28:30.932Z,0
2016-11-15T02:29:30.231Z,0
2016-11-15T02:30:30.768Z,0
2016-11-15T02:31:30.248Z,0
2016-11-15T02:32:30.171Z,0
2016-11-15T02:33:30.177Z,0
2016-11-15T02:34:30.128Z,0
2016-11-15T02:35:30.135Z,0
2016-11-15T02:36:30.200Z,0
2016-11-15T02:37:30.207Z,0
2016-11-15T02:38:30.170Z,0
2016-11-15T02:39:30.237Z,0
2016-11-15T02:40:30.225Z,0
2016-11-15T02:41:30.175Z,0
2016-11-15T02:42:30.224Z,0
2016-11-15T02:43:30.177Z,0
2016-11-15T02:44:30.212Z,0
2016-11-15T02:45:30.187Z,0
2016-11-15T02:46:30.241Z,0
2016-11-15T02:47:30.177Z,0
2016-11-15T02:48:30.180Z,0
2016-11-15T02:49:30.286Z,0
2016-11-15T02:50:30.245Z,0
2016-11-15T02:51:30.212Z,0
2016-11-15T02:52:30.165Z,0
2016-11-15T02:53:30.191Z,0
2016-11-15T02:54:30.289Z,0
2016-11-15T02:55:30.167Z,0
2016-11-15T02:56:30.279Z,0
2016-11-15T02:57:30.208Z,0
2016-11-15T02:58:30.976Z,0
2016-11-15T02:59:30.167Z,0
2016-11-15T03:00:30.228Z,0
2016-11-15T03:01:31.559Z,0
2016-11-15T03:02:30.272Z,0
2016-11-15T03:03:30.224Z,0
2016-11-15T03:04:30.690Z,0
2016-11-15T03:05:30.231Z,0
2016-11-15T03:06:35.301Z,0
2016-11-15T03:07:39.484Z,0
2016-11-15T03:08:40.989Z,0
2016-11-15T03:09:35.689Z,0
2016-11-15T03:10:33.059Z,0
2016-11-15T03:11:42.141Z,0
2016-11-15T03:12:33.427Z,0
2016-11-15T03:13:43.862Z,0
2016-11-15T03:14:45.578Z,0
2016-11-15T03:15:44.313Z,0
2016-11-15T03:16:43.803Z,0
2016-11-15T03:17:43.808Z,0
2016-11-15T03:18:42.509Z,0
2016-11-15T03:19:44.292Z,0
2016-11-15T03:20:43.722Z,0
2016-11-15T03:21:44.415Z,0
2016-11-15T03:22:42.960Z,0
2016-11-15T03:23:42.250Z,0
2016-11-15T03:24:42.769Z,0
2016-11-15T03:25:44.478Z,0
2016-11-15T03:26:46.757Z,0
2016-11-15T03:27:44.211Z,0
2016-11-15T03:28:42.821Z,0
2016-11-15T03:29:38.898Z,0
2016-11-15T03:30:40.106Z,0
2016-11-15T03:31:42.231Z,0
2016-11-15T03:32:41.347Z,0
2016-11-15T03:33:42.291Z,0
2016-11-15T03:34:31.421Z,0
2016-11-15T03:35:30.187Z,0
2016-11-15T03:36:30.210Z,0
2016-11-15T03:37:30.210Z,0
2016-11-15T03:38:30.300Z,0
2016-11-15T03:39:30.470Z,0
2016-11-15T03:40:30.168Z,0
2016-11-15T03:41:30.213Z,0
2016-11-15T03:42:30.492Z,0
2016-11-15T03:43:30.154Z,0
2016-11-15T03:44:30.198Z,0
2016-11-15T03:45:30.188Z,0
2016-11-15T03:46:31.593Z,0
2016-11-15T03:47:30.620Z,0
2016-11-15T03:48:30.424Z,0
2016-11-15T03:49:30.214Z,0
2016-11-15T03:50:30.227Z,0
2016-11-15T03:51:30.475Z,0
2016-11-15T03:52:30.717Z,0
2016-11-15T03:53:30.181Z,0
2016-11-15T03:54:30.213Z,0
2016-11-15T03:55:30.245Z,0
2016-11-15T03:56:30.232Z,0
2016-11-15T03:57:30.230Z,0
2016-11-15T03:58:30.269Z,0
2016-11-15T03:59:30.270Z,0
2016-11-15T04:00:32.060Z,0
2016-11-15T04:01:30.343Z,0
2016-11-15T04:02:30.220Z,0
2016-11-15T04:03:30.499Z,0
2016-11-15T04:04:30.217Z,0
2016-11-15T04:05:30.294Z,0
2016-11-15T04:06:30.219Z,0
2016-11-15T04:07:30.312Z,0
2016-11-15T04:08:30.317Z,0
2016-11-15T04:09:30.300Z,0
2016-11-15T04:10:30.188Z,0
2016-11-15T04:11:30.195Z,0
2016-11-15T04:12:30.713Z,0
2016-11-15T04:13:30.648Z,0
2016-11-15T04:14:30.258Z,0
2016-11-15T04:15:30.601Z,0
2016-11-15T04:16:30.214Z,0
2016-11-15T04:17:30.191Z,0
2016-11-15T04:18:30.227Z,0
2016-11-15T04:19:30.236Z,0
2016-11-15T04:20:30.251Z,0
2016-11-15T04:21:30.259Z,0
2016-11-15T04:22:30.221Z,0
2016-11-15T04:23:30.286Z,0
2016-11-15T04:24:30.242Z,0
2016-11-15T04:25:30.285Z,0
2016-11-15T04:26:30.204Z,0
2016-11-15T04:27:31.310Z,0
2016-11-15T04:28:30.251Z,0
2016-11-15T04:29:30.248Z,0
2016-11-15T04:30:30.221Z,0
2016-11-15T04:31:30.451Z,0
2016-11-15T04:32:30.220Z,0
2016-11-15T04:33:30.744Z,0
2016-11-15T04:34:30.258Z,0
2016-11-15T04:35:30.219Z,0
2016-11-15T04:36:30.263Z,0
2016-11-15T04:37:30.415Z,0
2016-11-15T04:38:32.263Z,0
2016-11-15T04:39:30.277Z,0
2016-11-15T04:40:30.255Z,0
2016-11-15T04:41:30.621Z,0
2016-11-15T04:42:30.226Z,0
2016-11-15T04:43:30.259Z,0
2016-11-15T04:44:30.389Z,0
2016-11-15T04:45:30.339Z,0
2016-11-15T04:46:30.301Z,0
2016-11-15T04:47:30.251Z,0
2016-11-15T04:48:30.214Z,0
2016-11-15T04:49:30.555Z,0
2016-11-15T04:50:30.293Z,0
2016-11-15T04:51:30.316Z,0
2016-11-15T04:52:30.248Z,0
2016-11-15T04:53:30.253Z,0
2016-11-15T04:54:30.232Z,0
2016-11-15T04:55:30.215Z,0
2016-11-15T04:56:30.537Z,0
2016-11-15T04:57:30.247Z,0
2016-11-15T04:58:30.281Z,0
2016-11-15T04:59:30.304Z,0
2016-11-15T05:00:31.168Z,0
2016-11-15T05:01:30.200Z,0
2016-11-15T05:02:30.280Z,0
2016-11-15T05:03:30.243Z,0
2016-11-15T05:04:30.249Z,0
2016-11-15T05:05:30.204Z,0
2016-11-15T05:06:30.249Z,0
2016-11-15T05:07:30.280Z,0
2016-11-15T05:08:30.248Z,0
2016-11-15T05:09:30.315Z,0
2016-11-15T05:10:30.290Z,0
2016-11-15T05:11:30.290Z,0
2016-11-15T05:12:30.243Z,0
2016-11-15T05:13:30.277Z,0
2016-11-15T05:14:30.281Z,0
2016-11-15T05:15:30.278Z,0
2016-11-15T05:16:30.226Z,0
2016-11-15T05:17:30.229Z,0
2016-11-15T05:18:30.226Z,0
2016-11-15T05:19:30.272Z,0
2016-11-15T05:20:30.278Z,0
2016-11-15T05:21:30.230Z,0
2016-11-15T05:22:30.284Z,0
2016-11-15T05:23:30.275Z,0
2016-11-15T05:24:30.338Z,0
2016-11-15T05:25:30.357Z,0
2016-11-15T05:26:30.279Z,0
2016-11-15T05:27:30.300Z,0
2016-11-15T05:28:30.392Z,0
2016-11-15T05:29:30.329Z,0
2016-11-15T05:30:30.287Z,0
2016-11-15T05:31:30.311Z,0
2016-11-15T05:32:30.245Z,0
2016-11-15T05:33:30.322Z,0
2016-11-15T05:34:30.302Z,0
2016-11-15T05:35:30.271Z,0
2016-11-15T05:36:30.272Z,0
2016-11-15T05:37:30.308Z,0
2016-11-15T05:38:30.333Z,0
2016-11-15T05:39:30.306Z,0
2016-11-15T05:40:30.269Z,0
2016-11-15T05:41:30.802Z,0
2016-11-15T05:42:30.312Z,0
2016-11-15T05:43:30.298Z,0
2016-11-15T05:44:30.325Z,0
2016-11-15T05:45:30.333Z,0
2016-11-15T05:46:30.290Z,0
2016-11-15T05:47:30.280Z,0
2016-11-15T05:48:30.358Z,0
2016-11-15T05:49:30.279Z,0
2016-11-15T05:50:30.301Z,0
2016-11-15T05:51:30.264Z,0
2016-11-15T05:52:30.286Z,0
2016-11-15T05:53:30.317Z,0
2016-11-15T05:54:30.326Z,0
2016-11-15T05:55:30.303Z,0
2016-11-15T05:56:30.236Z,0
2016-11-15T05:57:30.277Z,0
2016-11-15T05:58:30.280Z,0
2016-11-15T05:59:30.287Z,0
2016-11-15T06:00:30.316Z,0
2016-11-15T06:01:30.343Z,0
2016-11-15T06:02:30.345Z,0
2016-11-15T06:03:30.354Z,0
2016-11-15T06:04:30.307Z,0
2016-11-15T06:05:30.302Z,0
2016-11-15T06:06:30.482Z,0
2016-11-15T06:07:30.297Z,0
2016-11-15T06:08:30.364Z,0
2016-11-15T06:09:30.354Z,0
2016-11-15T06:10:30.325Z,0
2016-11-15T06:11:30.344Z,0
2016-11-15T06:12:30.333Z,0
2016-11-15T06:13:30.311Z,0
2016-11-15T06:14:30.293Z,0
2016-11-15T06:15:30.383Z,0
2016-11-15T06:16:30.754Z,0
2016-11-15T06:17:30.379Z,0
2016-11-15T06:18:30.373Z,0
2016-11-15T06:19:30.345Z,0
2016-11-15T06:20:30.310Z,0
2016-11-15T06:21:30.309Z,0
2016-11-15T06:22:30.315Z,0
2016-11-15T06:23:30.587Z,0
2016-11-15T06:24:30.390Z,0
2016-11-15T06:25:30.317Z,0
2016-11-15T06:26:30.332Z,0
2016-11-15T06:27:30.514Z,0
2016-11-15T06:28:30.344Z,0
2016-11-15T06:29:31.074Z,0
2016-11-15T06:30:30.342Z,0
2016-11-15T06:31:30.355Z,0
2016-11-15T06:32:30.371Z,0
2016-11-15T06:33:30.322Z,0
2016-11-15T06:34:30.650Z,0
2016-11-15T06:35:32.013Z,0
2016-11-15T06:36:30.979Z,0
2016-11-15T06:37:30.387Z,0
2016-11-15T06:38:30.773Z,0
2016-11-15T06:39:30.369Z,0
2016-11-15T06:40:30.346Z,0
2016-11-15T06:41:30.778Z,0
2016-11-15T06:42:30.646Z,0
2016-11-15T06:43:30.349Z,0
2016-11-15T06:44:30.310Z,0
2016-11-15T06:45:30.312Z,0
2016-11-15T06:46:31.043Z,0
2016-11-15T06:47:30.672Z,0
2016-11-15T06:48:30.313Z,0
2016-11-15T06:49:30.395Z,0
2016-11-15T06:50:30.435Z,0
2016-11-15T06:51:30.508Z,0
2016-11-15T06:52:30.665Z,0
2016-11-15T06:53:30.318Z,0
2016-11-15T06:54:30.301Z,0
2016-11-15T06:55:30.329Z,0
2016-11-15T06:56:30.981Z,0
2016-11-15T06:57:30.396Z,0
2016-11-15T06:58:30.343Z,0
2016-11-15T06:59:31.189Z,0
2016-11-15T07:00:30.370Z,0
2016-11-15T07:01:30.357Z,0
2016-11-15T07:02:31.067Z,0
2016-11-15T07:03:30.374Z,0
2016-11-15T07:04:30.398Z,0
2016-11-15T07:05:30.350Z,0
2016-11-15T07:06:30.357Z,0
2016-11-15T07:07:30.327Z,0
2016-11-15T07:08:30.379Z,0
2016-11-15T07:09:30.371Z,0
2016-11-15T07:10:30.381Z,0
2016-11-15T07:11:30.387Z,0
2016-11-15T07:12:30.412Z,5
2016-11-15T07:13:30.636Z,5
2016-11-15T07:14:30.426Z,5
2016-11-15T07:15:30.403Z,5
2016-11-15T07:16:30.382Z,5
2016-11-15T07:17:30.368Z,5
2016-11-15T07:18:30.361Z,5
2016-11-15T07:19:30.387Z,5
2016-11-15T07:20:30.380Z,5
2016-11-15T07:21:30.746Z,5
2016-11-15T07:22:30.391Z,5
2016-11-15T07:23:30.368Z,5
2016-11-15T07:24:30.402Z,5
2016-11-15T07:25:30.394Z,5
2016-11-15T07:26:30.384Z,10
2016-11-15T07:27:30.411Z,10
2016-11-15T07:28:30.369Z,10
2016-11-15T07:29:30.912Z,10
2016-11-15T07:30:30.409Z,10
2016-11-15T07:31:30.348Z,10
2016-11-15T07:32:30.442Z,10
2016-11-15T07:33:31.229Z,10
2016-11-15T07:34:30.748Z,10
2016-11-15T07:35:30.786Z,10
2016-11-15T07:36:30.447Z,10
2016-11-15T07:37:30.690Z,10
2016-11-15T07:38:30.405Z,10
2016-11-15T07:39:30.483Z,10
2016-11-15T07:40:30.430Z,10
2016-11-15T07:41:30.419Z,10
2016-11-15T07:42:31.810Z,10
2016-11-15T07:43:30.464Z,10
2016-11-15T07:44:30.558Z,10
2016-11-15T07:45:30.416Z,10
2016-11-15T07:46:30.405Z,10
2016-11-15T07:47:31.032Z,10
2016-11-15T07:48:30.472Z,15
2016-11-15T07:49:30.419Z,20
2016-11-15T07:50:30.424Z,20
2016-11-15T07:51:30.475Z,20
2016-11-15T07:52:30.448Z,20
2016-11-15T07:53:30.456Z,20
2016-11-15T07:54:30.424Z,25
2016-11-15T07:55:30.418Z,25
2016-11-15T07:56:30.424Z,25
2016-11-15T07:57:30.439Z,20
2016-11-15T07:58:30.351Z,25
2016-11-15T07:59:30.434Z,20
2016-11-15T08:00:30.963Z,30
2016-11-15T08:01:30.358Z,20
2016-11-15T08:02:30.414Z,15
2016-11-15T08:03:30.406Z,20
2016-11-15T08:04:30.436Z,20
2016-11-15T08:05:30.417Z,20
2016-11-15T08:06:30.511Z,20
2016-11-15T08:07:30.440Z,20
2016-11-15T08:08:30.436Z,15
2016-11-15T08:09:30.457Z,15
2016-11-15T08:10:30.435Z,15
2016-11-15T08:11:30.422Z,20
2016-11-15T08:12:30.454Z,20
2016-11-15T08:13:30.408Z,25
2016-11-15T08:14:30.475Z,25
2016-11-15T08:15:30.453Z,35
2016-11-15T08:16:30.465Z,35
2016-11-15T08:17:30.435Z,30
2016-11-15T08:18:30.479Z,30
2016-11-15T08:19:30.375Z,35
2016-11-15T08:20:30.565Z,25
2016-11-15T08:21:31.717Z,20
2016-11-15T08:22:30.427Z,25
2016-11-15T08:23:30.440Z,20
2016-11-15T08:24:30.447Z,25
2016-11-15T08:25:30.507Z,30
2016-11-15T08:26:30.484Z,35
2016-11-15T08:27:30.425Z,25
2016-11-15T08:28:30.514Z,30
2016-11-15T08:29:30.490Z,30
2016-11-15T08:30:30.777Z,30
2016-11-15T08:31:30.428Z,30
2016-11-15T08:32:30.524Z,30
2016-11-15T08:33:30.597Z,35
2016-11-15T08:34:30.540Z,35
2016-11-15T08:35:30.493Z,40
2016-11-15T08:36:30.397Z,35
2016-11-15T08:37:30.429Z,40
2016-11-15T08:38:30.479Z,40
2016-11-15T08:39:30.422Z,40
2016-11-15T08:40:30.505Z,35
2016-11-15T08:41:30.408Z,30
2016-11-15T08:42:30.388Z,30
2016-11-15T08:43:30.416Z,25
2016-11-15T08:44:30.621Z,25
2016-11-15T08:45:30.452Z,30
2016-11-15T08:46:30.786Z,35
2016-11-15T08:47:30.663Z,40
2016-11-15T08:48:30.473Z,40
2016-11-15T08:49:30.741Z,35
2016-11-15T08:50:30.540Z,40
2016-11-15T08:51:30.474Z,35
2016-11-15T08:52:30.554Z,35
2016-11-15T08:53:30.574Z,30
2016-11-15T08:54:30.800Z,35
2016-11-15T08:55:30.578Z,35
2016-11-15T08:56:30.722Z,35
2016-11-15T08:57:30.492Z,35
2016-11-15T08:58:30.532Z,35
2016-11-15T08:59:30.478Z,45
2016-11-15T09:00:30.651Z,55
2016-11-15T09:01:30.515Z,60
2016-11-15T09:02:30.974Z,60
2016-11-15T09:03:30.466Z,55
2016-11-15T09:04:30.423Z,50
2016-11-15T09:05:30.482Z,45
2016-11-15T09:06:30.758Z,50
2016-11-15T09:07:30.529Z,45
2016-11-15T09:08:30.450Z,55
2016-11-15T09:09:30.492Z,50
2016-11-15T09:10:30.568Z,45
2016-11-15T09:11:30.544Z,55
2016-11-15T09:12:30.476Z,55
2016-11-15T09:13:30.486Z,50
2016-11-15T09:14:30.457Z,50
2016-11-15T09:15:30.514Z,55
2016-11-15T09:16:30.521Z,55
2016-11-15T09:17:30.514Z,55
2016-11-15T09:18:30.479Z,55
2016-11-15T09:19:30.469Z,50
2016-11-15T09:20:30.457Z,40
2016-11-15T09:21:31.082Z,35
2016-11-15T09:22:30.429Z,35
2016-11-15T09:23:30.467Z,35
2016-11-15T09:24:30.465Z,35
2016-11-15T09:25:30.497Z,40
2016-11-15T09:26:30.473Z,35
2016-11-15T09:27:30.470Z,40
2016-11-15T09:28:30.554Z,45
2016-11-15T09:29:30.429Z,40
2016-11-15T09:30:30.492Z,45
2016-11-15T09:31:30.422Z,35
2016-11-15T09:32:30.470Z,25
2016-11-15T09:33:30.492Z,30
2016-11-15T09:34:30.441Z,35
2016-11-15T09:35:30.473Z,40
2016-11-15T09:36:30.451Z,55
2016-11-15T09:37:30.468Z,65
2016-11-15T09:38:30.464Z,65
2016-11-15T09:39:30.481Z,65
2016-11-15T09:40:30.516Z,65
2016-11-15T09:41:30.459Z,65
2016-11-15T09:42:30.436Z,65
2016-11-15T09:43:30.445Z,65
2016-11-15T09:44:30.468Z,70
2016-11-15T09:45:30.528Z,70
2016-11-15T09:46:30.480Z,65
2016-11-15T09:47:30.461Z,60
2016-11-15T09:48:30.466Z,55
2016-11-15T09:49:30.481Z,55
2016-11-15T09:50:30.469Z,55
2016-11-15T09:51:30.456Z,55
2016-11-15T09:52:30.459Z,55
2016-11-15T09:53:30.484Z,55
2016-11-15T09:54:30.484Z,55
2016-11-15T09:55:31.425Z,50
2016-11-15T09:56:30.481Z,60
2016-11-15T09:57:30.450Z,70
2016-11-15T09:58:30.481Z,60
2016-11-15T09:59:30.488Z,60
2016-11-15T10:00:30.462Z,60
2016-11-15T10:01:30.437Z,45
2016-11-15T10:02:30.436Z,50
2016-11-15T10:03:30.463Z,40
2016-11-15T10:04:30.489Z,45
2016-11-15T10:05:30.450Z,40
2016-11-15T10:06:30.460Z,40
2016-11-15T10:07:30.510Z,45
2016-11-15T10:08:30.526Z,45
2016-11-15T10:09:30.478Z,45
2016-11-15T10:10:30.528Z,45
2016-11-15T10:11:30.529Z,40
2016-11-15T10:12:30.475Z,35
2016-11-15T10:13:30.479Z,40
2016-11-15T10:14:30.481Z,35
2016-11-15T10:15:30.459Z,40
2016-11-15T10:16:30.478Z,35
2016-11-15T10:17:30.457Z,35
2016-11-15T10:18:30.477Z,45
2016-11-15T10:19:30.517Z,50
2016-11-15T10:20:30.494Z,50
2016-11-15T10:21:30.486Z,50
2016-11-15T10:22:30.712Z,45
2016-11-15T10:23:30.470Z,50
2016-11-15T10:24:30.402Z,65
2016-11-15T10:25:30.613Z,80
2016-11-15T10:26:30.585Z,85
2016-11-15T10:27:30.476Z,90
2016-11-15T10:28:30.498Z,85
2016-11-15T10:29:30.533Z,80
2016-11-15T10:30:30.497Z,65
2016-11-15T10:31:30.562Z,80
2016-11-15T10:32:30.540Z,90
2016-11-15T10:33:30.479Z,60
2016-11-15T10:34:30.489Z,45
2016-11-15T10:35:30.513Z,50
2016-11-15T10:36:30.549Z,45
2016-11-15T10:37:30.557Z,50
2016-11-15T10:38:30.505Z,40
2016-11-15T10:39:30.511Z,40
2016-11-15T10:40:30.520Z,40
2016-11-15T10:41:30.526Z,50
2016-11-15T10:42:30.517Z,55
2016-11-15T10:43:30.526Z,50
2016-11-15T10:44:30.491Z,45
2016-11-15T10:45:30.556Z,55
2016-11-15T10:46:30.535Z,55
2016-11-15T10:47:30.553Z,60
2016-11-15T10:48:30.569Z,55
2016-11-15T10:49:30.590Z,55
2016-11-15T10:50:30.549Z,55
2016-11-15T10:51:30.554Z,55
2016-11-15T10:52:30.511Z,55
2016-11-15T10:53:30.521Z,55
2016-11-15T10:54:30.539Z,50
2016-11-15T10:55:30.592Z,60
2016-11-15T10:56:30.553Z,50
2016-11-15T10:57:31.232Z,55
2016-11-15T10:58:30.563Z,55
2016-11-15T10:59:31.217Z,55
2016-11-15T11:00:30.713Z,60
2016-11-15T11:01:30.622Z,60
2016-11-15T11:02:30.624Z,80
2016-11-15T11:03:30.589Z,80
2016-11-15T11:04:30.667Z,90
2016-11-15T11:05:30.604Z,100
2016-11-15T11:06:30.693Z,75
2016-11-15T11:07:31.267Z,80
2016-11-15T11:08:30.630Z,85
2016-11-15T11:09:30.533Z,85
2016-11-15T11:10:30.659Z,85
2016-11-15T11:11:30.671Z,70
2016-11-15T11:12:30.676Z,85
2016-11-15T11:13:30.724Z,90
2016-11-15T11:14:30.694Z,70
2016-11-15T11:15:30.652Z,70
2016-11-15T11:16:30.706Z,70
2016-11-15T11:17:30.675Z,80
2016-11-15T11:18:30.738Z,75
2016-11-15T11:19:30.744Z,60
2016-11-15T11:20:30.675Z,65
2016-11-15T11:21:31.278Z,60
2016-11-15T11:22:30.719Z,55
2016-11-15T11:23:31.269Z,65
2016-11-15T11:24:30.710Z,55
2016-11-15T11:25:31.292Z,55
2016-11-15T11:26:30.752Z,60
2016-11-15T11:27:30.699Z,70
2016-11-15T11:28:30.745Z,80
2016-11-15T11:29:30.696Z,65
2016-11-15T11:30:30.712Z,65
2016-11-15T11:31:30.692Z,55
2016-11-15T11:32:30.748Z,55
2016-11-15T11:33:30.791Z,55
2016-11-15T11:34:31.247Z,50
2016-11-15T11:35:30.941Z,55
2016-11-15T11:36:30.737Z,55
2016-11-15T11:37:31.563Z,55
2016-11-15T11:38:30.751Z,55
2016-11-15T11:39:30.744Z,55
2016-11-15T11:40:31.086Z,60
2016-11-15T11:41:31.224Z,75
2016-11-15T11:42:31.256Z,80
2016-11-15T11:43:31.065Z,80
2016-11-15T11:44:30.609Z,70
2016-11-15T11:45:30.596Z,75
2016-11-15T11:46:30.676Z,70
2016-11-15T11:47:30.587Z,60
2016-11-15T11:48:31.267Z,60
2016-11-15T11:49:30.608Z,65
2016-11-15T11:50:30.565Z,70
2016-11-15T11:51:30.632Z,65
2016-11-15T11:52:30.673Z,65
2016-11-15T11:53:30.655Z,65
2016-11-15T11:54:30.645Z,60
2016-11-15T11:55:30.559Z,65
2016-11-15T11:56:30.614Z,70
2016-11-15T11:57:30.631Z,55
2016-11-15T11:58:30.549Z,55
2016-11-15T11:59:30.511Z,65
2016-11-15T12:00:30.577Z,60
2016-11-15T12:01:30.607Z,65
2016-11-15T12:02:30.575Z,55
2016-11-15T12:03:30.601Z,55
2016-11-15T12:04:30.555Z,55
2016-11-15T12:05:30.603Z,55
2016-11-15T12:06:30.636Z,55
2016-11-15T12:07:30.553Z,55
2016-11-15T12:08:30.651Z,55
2016-11-15T12:09:30.683Z,60
2016-11-15T12:10:30.635Z,60
2016-11-15T12:11:30.699Z,55
2016-11-15T12:12:30.643Z,50
2016-11-15T12:13:30.569Z,50
2016-11-15T12:14:30.633Z,55
2016-11-15T12:15:30.620Z,50
2016-11-15T12:16:30.607Z,45
2016-11-15T12:17:30.616Z,50
2016-11-15T12:18:30.662Z,55
2016-11-15T12:19:30.611Z,55
2016-11-15T12:20:30.587Z,55
2016-11-15T12:21:30.642Z,55
2016-11-15T12:22:30.585Z,60
2016-11-15T12:23:30.608Z,65
2016-11-15T12:24:30.600Z,60
2016-11-15T12:25:30.670Z,55
2016-11-15T12:26:30.655Z,60
2016-11-15T12:27:30.639Z,70
2016-11-15T12:28:30.699Z,65
2016-11-15T12:29:31.317Z,55
2016-11-15T12:30:30.635Z,55
2016-11-15T12:31:30.607Z,60
2016-11-15T12:32:30.609Z,65
2016-11-15T12:33:30.652Z,60
2016-11-15T12:34:30.594Z,60
2016-11-15T12:35:30.600Z,55
2016-11-15T12:36:30.629Z,60
2016-11-15T12:37:30.623Z,55
2016-11-15T12:38:30.623Z,55
2016-11-15T12:39:30.685Z,65
2016-11-15T12:40:30.572Z,60
2016-11-15T12:41:30.658Z,65
2016-11-15T12:42:31.282Z,55
2016-11-15T12:43:30.600Z,50
2016-11-15T12:44:30.607Z,55
2016-11-15T12:45:30.645Z,55
2016-11-15T12:46:30.635Z,60
2016-11-15T12:47:30.655Z,50
2016-11-15T12:48:30.648Z,45
2016-11-15T12:49:30.767Z,45
2016-11-15T12:50:30.686Z,45
2016-11-15T12:51:30.714Z,45
2016-11-15T12:52:30.754Z,45
2016-11-15T12:53:30.657Z,50
2016-11-15T12:54:30.603Z,55
2016-11-15T12:55:30.625Z,55
2016-11-15T12:56:30.642Z,55
2016-11-15T12:57:30.637Z,60
2016-11-15T12:58:30.649Z,65
2016-11-15T12:59:30.609Z,80
2016-11-15T13:00:30.612Z,85
2016-11-15T13:01:30.632Z,85
2016-11-15T13:02:30.684Z,85
2016-11-15T13:03:30.627Z,85
2016-11-15T13:04:30.651Z,85
2016-11-15T13:05:30.651Z,90
2016-11-15T13:06:30.651Z,90
2016-11-15T13:07:30.714Z,90
2016-11-15T13:08:30.636Z,90
2016-11-15T13:09:30.678Z,100
2016-11-15T13:10:30.675Z,95
2016-11-15T13:11:30.686Z,70
2016-11-15T13:12:30.731Z,65
2016-11-15T13:13:30.696Z,60
2016-11-15T13:14:30.677Z,60
2016-11-15T13:15:30.725Z,50
2016-11-15T13:16:30.649Z,50
2016-11-15T13:17:30.646Z,60
2016-11-15T13:18:30.851Z,55
2016-11-15T13:19:30.709Z,55
2016-11-15T13:20:30.672Z,50
2016-11-15T13:21:30.811Z,45
2016-11-15T13:22:30.733Z,45
2016-11-15T13:23:30.707Z,50
2016-11-15T13:24:30.726Z,35
2016-11-15T13:25:30.770Z,40
2016-11-15T13:26:30.709Z,40
2016-11-15T13:27:30.805Z,40
2016-11-15T13:28:30.703Z,35
2016-11-15T13:29:31.061Z,50
2016-11-15T13:30:30.664Z,45
2016-11-15T13:31:31.263Z,40
2016-11-15T13:32:30.684Z,45
2016-11-15T13:33:30.716Z,35
2016-11-15T13:34:30.642Z,35
2016-11-15T13:35:30.655Z,30
2016-11-15T13:36:30.735Z,25
2016-11-15T13:37:30.707Z,30
2016-11-15T13:38:30.707Z,40
2016-11-15T13:39:30.746Z,35
2016-11-15T13:40:30.674Z,30
2016-11-15T13:41:30.643Z,30
2016-11-15T13:42:30.714Z,40
2016-11-15T13:43:30.621Z,40
2016-11-15T13:44:30.640Z,40
2016-11-15T13:45:30.760Z,40
2016-11-15T13:46:30.701Z,40
2016-11-15T13:47:30.671Z,40
2016-11-15T13:48:30.647Z,40
2016-11-15T13:49:30.693Z,50
2016-11-15T13:50:30.671Z,45
2016-11-15T13:51:30.707Z,35
2016-11-15T13:52:30.668Z,35
2016-11-15T13:53:30.659Z,30
2016-11-15T13:54:30.652Z,30
2016-11-15T13:55:30.725Z,25
2016-11-15T13:56:30.739Z,30
2016-11-15T13:57:32.269Z,35
2016-11-15T13:58:30.694Z,30
2016-11-15T13:59:30.938Z,25
2016-11-15T14:00:30.727Z,25
2016-11-15T14:01:30.696Z,25
2016-11-15T14:02:30.697Z,30
2016-11-15T14:03:30.738Z,25
2016-11-15T14:04:30.741Z,25
2016-11-15T14:05:30.697Z,25
2016-11-15T14:06:30.812Z,25
2016-11-15T14:07:30.732Z,25
2016-11-15T14:08:31.290Z,30
2016-11-15T14:09:30.708Z,35
2016-11-15T14:10:30.697Z,30
2016-11-15T14:11:30.709Z,40
2016-11-15T14:12:31.027Z,40
2016-11-15T14:13:30.752Z,40
2016-11-15T14:14:30.695Z,35
2016-11-15T14:15:30.690Z,30
2016-11-15T14:16:30.717Z,30
2016-11-15T14:17:30.689Z,25
2016-11-15T14:18:30.738Z,30
2016-11-15T14:19:30.656Z,20
2016-11-15T14:20:30.656Z,15
2016-11-15T14:21:30.685Z,15
2016-11-15T14:22:30.723Z,15
2016-11-15T14:23:30.671Z,15
2016-11-15T14:24:30.707Z,15
2016-11-15T14:25:30.819Z,10
2016-11-15T14:26:30.690Z,10
2016-11-15T14:27:31.095Z,10
2016-11-15T14:28:30.737Z,10
2016-11-15T14:29:30.751Z,10
2016-11-15T14:30:30.717Z,10
2016-11-15T14:31:30.700Z,15